createdAt,value
2022-12-23T00:01:17.990Z,81.80
2022-12-23T00:03:45.023Z,81.90
2022-12-23T00:06:14.585Z,81.80
2022-12-23T00:08:42.393Z,81.80
2022-12-23T00:11:14.716Z,81.80
2022-12-23T00:13:59.894Z,81.60
2022-12-23T00:16:26.980Z,81.70
2022-12-23T00:18:54.605Z,81.60
2022-12-23T00:21:22.071Z,81.80
2022-12-23T00:23:50.840Z,81.90
2022-12-23T00:26:24.254Z,82.10
2022-12-23T00:28:51.482Z,82.00
2022-12-23T00:31:19.958Z,81.70
2022-12-23T00:33:50.163Z,82.10
2022-12-23T00:36:27.721Z,82.30
2022-12-23T00:39:13.881Z,82.30
2022-12-23T00:41:59.381Z,82.30
2022-12-23T00:44:26.514Z,82.30
2022-12-23T00:46:53.570Z,82.20
2022-12-23T00:49:39.823Z,82.10
2022-12-23T00:52:09.496Z,82.10
2022-12-23T00:54:36.584Z,81.90
2022-12-23T00:57:04.246Z,81.80
2022-12-23T00:59:31.073Z,81.60
2022-12-23T01:02:16.291Z,81.70
2022-12-23T01:05:01.781Z,81.60
2022-12-23T01:07:28.773Z,81.70
2022-12-23T01:09:55.616Z,81.50
2022-12-23T01:12:22.384Z,81.50
2022-12-23T01:14:49.199Z,81.60
2022-12-23T01:17:16.509Z,81.40
2022-12-23T01:19:43.642Z,81.30
2022-12-23T01:22:10.492Z,81.40
2022-12-23T01:24:37.294Z,81.40
2022-12-23T01:27:04.024Z,81.30
2022-12-23T01:29:30.923Z,81.30
2022-12-23T01:31:58.109Z,81.30
2022-12-23T01:34:25.998Z,81.20
2022-12-23T01:36:55.391Z,81.20
2022-12-23T01:39:22.183Z,81.20
2022-12-23T01:42:07.374Z,81.20
2022-12-23T01:44:48.853Z,81.30
2022-12-23T01:47:44.564Z,81.00
2022-12-23T01:50:32.669Z,80.90
2022-12-23T01:53:14.604Z,81.10
2022-12-23T01:55:47.282Z,81.10
2022-12-23T01:58:28.674Z,80.90
2022-12-23T02:01:16.421Z,81.10
2022-12-23T02:03:45.372Z,80.70
2022-12-23T02:06:42.654Z,81.20
2022-12-23T02:09:19.443Z,81.20
2022-12-23T02:12:14.739Z,81.00
2022-12-23T02:15:30.876Z,81.10
2022-12-23T02:18:32.758Z,81.20
2022-12-23T02:21:14.794Z,81.10
2022-12-23T02:23:47.223Z,81.10
2022-12-23T02:26:28.990Z,80.90
2022-12-23T02:29:18.641Z,81.00
2022-12-23T02:32:05.197Z,80.90
2022-12-23T02:34:49.808Z,80.90
2022-12-23T02:37:42.296Z,80.60
2022-12-23T02:40:24.649Z,80.80
2022-12-23T02:42:59.282Z,80.60
2022-12-23T02:45:39.737Z,80.70
2022-12-23T02:48:22.311Z,80.70
2022-12-23T02:50:51.192Z,80.70
2022-12-23T02:53:32.471Z,80.50
2022-12-23T02:56:02.078Z,80.40
2022-12-23T02:58:33.835Z,80.40
2022-12-23T03:01:01.886Z,80.40
2022-12-23T03:03:29.315Z,80.30
2022-12-23T03:05:56.617Z,80.30
2022-12-23T03:08:31.092Z,80.30
2022-12-23T03:11:15.256Z,80.30
2022-12-23T03:14:10.054Z,80.40
2022-12-23T03:17:13.897Z,80.10
2022-12-23T03:19:45.403Z,80.30
2022-12-23T03:22:15.177Z,80.30
2022-12-23T03:25:03.005Z,80.20
2022-12-23T03:27:43.111Z,80.30
2022-12-23T03:30:17.023Z,80.30
2022-12-23T03:32:48.304Z,80.30
2022-12-23T03:35:20.163Z,80.40
2022-12-23T03:37:50.620Z,80.20
2022-12-23T03:40:22.716Z,80.20
2022-12-23T03:42:56.735Z,80.10
2022-12-23T03:45:40.710Z,80.10
2022-12-23T03:48:24.106Z,80.20
2022-12-23T03:50:56.810Z,79.90
2022-12-23T03:53:34.830Z,80.00
2022-12-23T03:56:09.819Z,80.10
2022-12-23T03:58:52.784Z,80.10
2022-12-23T04:01:44.717Z,80.00
2022-12-23T04:04:26.520Z,80.00
2022-12-23T04:07:17.429Z,80.10
2022-12-23T04:09:44.946Z,80.00
2022-12-23T04:12:13.827Z,79.90
2022-12-23T04:14:48.193Z,79.90
2022-12-23T04:17:15.949Z,79.90
2022-12-23T04:19:45.461Z,80.00
2022-12-23T04:22:13.850Z,79.90
2022-12-23T04:24:40.665Z,80.00
2022-12-23T04:27:09.823Z,80.00
2022-12-23T04:29:36.615Z,79.80
2022-12-23T04:32:03.511Z,80.00
2022-12-23T04:34:30.354Z,80.00
2022-12-23T04:36:57.297Z,80.20
2022-12-23T04:39:24.300Z,80.00
2022-12-23T04:41:51.546Z,80.00
2022-12-23T04:44:18.403Z,80.00
2022-12-23T04:46:45.435Z,79.90
2022-12-23T04:49:12.283Z,79.80
2022-12-23T04:51:39.080Z,79.60
2022-12-23T04:54:05.869Z,79.50
2022-12-23T04:56:32.616Z,79.50
2022-12-23T04:59:02.264Z,79.30
2022-12-23T05:01:29.772Z,79.20
2022-12-23T05:03:56.685Z,79.00
2022-12-23T05:06:23.559Z,79.40
2022-12-23T05:08:50.354Z,79.10
2022-12-23T05:11:17.143Z,79.20
2022-12-23T05:13:43.935Z,79.10
2022-12-23T05:16:10.880Z,79.20
2022-12-23T05:18:39.012Z,79.30
2022-12-23T05:21:05.812Z,79.40
2022-12-23T05:23:32.849Z,79.30
2022-12-23T05:25:59.665Z,79.30
2022-12-23T05:28:26.406Z,79.30
2022-12-23T05:31:05.290Z,79.40
2022-12-23T05:33:35.405Z,79.40
2022-12-23T05:36:02.628Z,79.30
2022-12-23T05:38:29.668Z,79.20
2022-12-23T05:40:56.697Z,79.20
2022-12-23T05:43:24.074Z,79.20
2022-12-23T05:45:51.536Z,79.10
2022-12-23T05:48:18.419Z,79.10
2022-12-23T05:50:45.272Z,79.30
2022-12-23T05:53:12.008Z,79.20
2022-12-23T05:55:38.847Z,79.30
2022-12-23T05:58:05.814Z,79.30
2022-12-23T06:00:32.685Z,79.40
2022-12-23T06:02:59.590Z,79.50
2022-12-23T06:05:26.636Z,79.50
2022-12-23T06:07:53.418Z,79.30
2022-12-23T06:10:20.231Z,79.30
2022-12-23T06:12:46.952Z,79.10
2022-12-23T06:15:13.844Z,79.00
2022-12-23T06:17:40.646Z,79.50
2022-12-23T06:20:08.501Z,78.90
2022-12-23T06:22:35.294Z,78.70
2022-12-23T06:25:02.151Z,78.60
2022-12-23T06:27:29.043Z,78.40
2022-12-23T06:29:56.241Z,78.40
2022-12-23T06:32:22.994Z,78.40
2022-12-23T06:34:53.273Z,78.30
2022-12-23T06:37:23.154Z,78.20
2022-12-23T06:39:49.957Z,78.10
2022-12-23T06:42:16.743Z,78.00
2022-12-23T06:44:43.541Z,77.80
2022-12-23T06:47:10.424Z,78.00
2022-12-23T06:49:37.170Z,77.90
2022-12-23T06:52:04.195Z,77.80
2022-12-23T06:54:31.228Z,77.80
2022-12-23T06:56:58.111Z,77.80
2022-12-23T06:59:24.954Z,77.80
2022-12-23T07:01:51.813Z,77.90
2022-12-23T07:04:18.587Z,77.70
2022-12-23T07:06:46.542Z,77.80
2022-12-23T07:09:14.487Z,77.70
2022-12-23T07:11:41.326Z,77.80
2022-12-23T07:14:08.167Z,77.80
2022-12-23T07:16:35.027Z,77.60
2022-12-23T07:19:01.887Z,77.60
2022-12-23T07:21:30.000Z,77.40
2022-12-23T07:23:57.067Z,77.40
2022-12-23T07:26:23.959Z,77.40
2022-12-23T07:28:50.750Z,77.40
2022-12-23T07:31:17.504Z,77.40
2022-12-23T07:33:44.656Z,77.40
2022-12-23T07:36:11.538Z,77.50
2022-12-23T07:38:38.393Z,77.30
2022-12-23T07:41:05.357Z,77.30
2022-12-23T07:43:32.270Z,77.50
2022-12-23T07:46:00.633Z,77.40
2022-12-23T07:48:28.212Z,77.40
2022-12-23T07:51:01.398Z,77.40
2022-12-23T07:53:28.403Z,77.40
2022-12-23T07:55:56.777Z,77.20
2022-12-23T07:58:24.190Z,77.10
2022-12-23T08:00:50.990Z,77.20
2022-12-23T08:03:17.987Z,77.30
2022-12-23T08:05:44.894Z,77.30
2022-12-23T08:08:11.989Z,77.20
2022-12-23T08:10:44.421Z,77.10
2022-12-23T08:13:14.716Z,77.20
2022-12-23T08:15:41.557Z,77.20
2022-12-23T08:18:08.268Z,77.20
2022-12-23T08:20:34.989Z,77.20
2022-12-23T08:23:01.741Z,77.00
2022-12-23T08:25:28.540Z,77.00
2022-12-23T08:27:55.303Z,77.00
2022-12-23T08:30:22.096Z,76.80
2022-12-23T08:32:50.014Z,76.70
2022-12-23T08:35:16.910Z,76.70
2022-12-23T08:37:43.751Z,76.80
2022-12-23T08:40:11.724Z,76.90
2022-12-23T08:42:38.616Z,77.40
2022-12-23T08:45:05.558Z,76.90
2022-12-23T08:47:32.299Z,77.00
2022-12-23T08:49:59.161Z,76.90
2022-12-23T08:52:25.940Z,76.80
2022-12-23T08:54:53.648Z,76.80
2022-12-23T08:57:20.429Z,76.70
2022-12-23T08:59:48.357Z,76.70
2022-12-23T09:02:15.248Z,76.70
2022-12-23T09:04:42.253Z,76.70
2022-12-23T09:07:09.125Z,76.70
2022-12-23T09:09:38.288Z,76.60
2022-12-23T09:12:05.224Z,76.80
2022-12-23T09:14:32.075Z,76.80
2022-12-23T09:16:58.895Z,76.70
2022-12-23T09:19:25.669Z,76.80
2022-12-23T09:21:52.503Z,76.80
2022-12-23T09:24:19.243Z,76.60
2022-12-23T09:26:46.139Z,76.50
2022-12-23T09:29:12.907Z,76.50
2022-12-23T09:31:39.725Z,76.50
2022-12-23T09:34:06.888Z,76.50
2022-12-23T09:36:33.979Z,76.50
2022-12-23T09:39:00.863Z,76.50
2022-12-23T09:41:46.353Z,76.50
2022-12-23T09:44:57.117Z,76.40
2022-12-23T09:47:26.480Z,76.40
2022-12-23T09:49:58.948Z,76.40
2022-12-23T09:52:47.038Z,76.30
2022-12-23T09:55:15.077Z,76.20
2022-12-23T09:57:47.646Z,76.30
2022-12-23T10:00:18.165Z,76.20
2022-12-23T10:03:19.175Z,76.40
2022-12-23T10:05:56.240Z,76.40
2022-12-23T10:08:34.294Z,76.50
2022-12-23T10:11:28.220Z,76.50
2022-12-23T10:14:03.313Z,76.50
2022-12-23T10:16:38.766Z,76.40
2022-12-23T10:19:41.664Z,76.40
2022-12-23T10:22:20.207Z,76.50
2022-12-23T10:24:48.346Z,76.40
2022-12-23T10:27:37.085Z,76.50
2022-12-23T10:33:19.322Z,76.50
2022-12-23T10:36:09.641Z,76.40
2022-12-23T10:38:55.665Z,76.40
2022-12-23T10:41:53.875Z,76.40
2022-12-23T10:44:50.518Z,76.30
2022-12-23T10:47:57.338Z,76.40
2022-12-23T10:50:46.181Z,76.40
2022-12-23T10:53:24.471Z,76.40
2022-12-23T10:55:51.432Z,76.50
2022-12-23T10:58:19.401Z,76.50
2022-12-23T11:00:52.435Z,76.50
2022-12-23T11:03:36.581Z,76.50
2022-12-23T11:06:06.124Z,76.40
2022-12-23T11:08:32.967Z,76.40
2022-12-23T11:11:01.358Z,76.40
2022-12-23T11:13:36.657Z,76.40
2022-12-23T11:16:25.891Z,76.30
2022-12-23T11:19:00.286Z,76.40
2022-12-23T11:21:29.062Z,76.40
2022-12-23T11:24:17.929Z,76.60
2022-12-23T11:26:50.501Z,76.50
2022-12-23T11:29:25.075Z,76.50
2022-12-23T11:31:52.251Z,76.50
2022-12-23T11:34:22.552Z,76.60
2022-12-23T11:37:01.751Z,76.70
2022-12-23T11:39:36.436Z,76.60
2022-12-23T11:42:15.700Z,76.70
2022-12-23T11:44:48.885Z,76.80
2022-12-23T11:47:26.604Z,76.60
2022-12-23T11:50:05.357Z,76.80
2022-12-23T11:52:33.454Z,76.70
2022-12-23T11:55:05.031Z,76.80
2022-12-23T11:57:49.117Z,76.70
2022-12-23T12:00:40.037Z,76.80
2022-12-23T12:03:08.195Z,76.80
2022-12-23T12:05:48.783Z,76.80
2022-12-23T12:08:21.916Z,76.70
2022-12-23T12:10:52.872Z,76.70
2022-12-23T12:13:29.077Z,76.70
2022-12-23T12:16:31.058Z,76.70
2022-12-23T12:19:05.094Z,76.60
2022-12-23T12:21:37.769Z,76.60
2022-12-23T12:24:19.532Z,76.60
2022-12-23T12:26:51.590Z,76.70
2022-12-23T12:29:39.894Z,76.70
2022-12-23T12:32:30.781Z,76.70
2022-12-23T12:35:03.361Z,76.80
2022-12-23T12:37:40.909Z,76.80
2022-12-23T12:40:41.400Z,76.80
2022-12-23T12:43:27.737Z,76.80
2022-12-23T12:46:20.634Z,76.80
2022-12-23T12:49:02.464Z,76.70
2022-12-23T12:51:43.353Z,76.80
2022-12-23T12:54:22.484Z,76.80
2022-12-23T12:56:53.373Z,76.60
2022-12-23T12:59:28.105Z,76.70
2022-12-23T13:02:11.144Z,76.80
2022-12-23T13:04:48.165Z,76.80
2022-12-23T13:07:26.517Z,76.80
2022-12-23T13:09:56.125Z,76.90
2022-12-23T13:12:38.148Z,76.90
2022-12-23T13:15:10.366Z,76.80
2022-12-23T13:18:07.396Z,76.80
2022-12-23T13:20:51.303Z,76.80
2022-12-23T13:23:43.428Z,76.80
2022-12-23T13:26:29.426Z,76.80
2022-12-23T13:28:59.269Z,76.70
2022-12-23T13:31:47.295Z,76.80
2022-12-23T13:34:26.361Z,76.80
2022-12-23T13:37:20.526Z,76.80
2022-12-23T13:39:53.015Z,76.70
2022-12-23T13:42:29.958Z,76.70
2022-12-23T13:44:58.116Z,76.70
2022-12-23T13:47:35.629Z,76.50
2022-12-23T13:50:16.369Z,76.50
2022-12-23T13:53:01.958Z,76.50
2022-12-23T13:56:07.088Z,76.50
2022-12-23T13:58:34.140Z,76.50
2022-12-23T14:01:10.116Z,76.50
2022-12-23T14:03:39.585Z,76.50
2022-12-23T14:06:32.721Z,76.60
2022-12-23T14:08:59.505Z,76.50
2022-12-23T14:11:30.054Z,76.40
2022-12-23T14:14:00.453Z,76.40
2022-12-23T14:17:00.851Z,76.40
2022-12-23T14:19:42.625Z,76.40
2022-12-23T14:22:37.119Z,76.40
2022-12-23T14:25:28.693Z,76.40
2022-12-23T14:27:58.320Z,76.40
2022-12-23T14:30:40.208Z,76.50
2022-12-23T14:33:32.753Z,76.50
2022-12-23T14:36:26.630Z,76.50
2022-12-23T14:39:11.710Z,76.50
2022-12-23T14:42:05.131Z,76.50
2022-12-23T14:44:36.144Z,76.50
2022-12-23T14:47:23.764Z,76.50
2022-12-23T14:49:50.647Z,76.50
2022-12-23T14:52:40.791Z,76.50
2022-12-23T14:55:31.997Z,76.40
2022-12-23T14:58:17.461Z,76.40
2022-12-23T15:00:55.205Z,76.40
2022-12-23T15:03:22.953Z,76.90
2022-12-23T15:05:51.072Z,76.50
2022-12-23T15:08:32.127Z,76.40
2022-12-23T15:10:59.834Z,76.40
2022-12-23T15:13:28.838Z,76.40
2022-12-23T15:16:01.342Z,76.30
2022-12-23T15:18:29.015Z,76.40
2022-12-23T15:21:00.311Z,76.30
2022-12-23T15:23:27.178Z,76.20
2022-12-23T15:25:58.751Z,76.20
2022-12-23T15:28:38.191Z,76.30
2022-12-23T15:31:06.524Z,76.30
2022-12-23T15:36:32.124Z,76.30
2022-12-23T15:39:00.745Z,76.30
2022-12-23T15:41:28.358Z,76.30
2022-12-23T15:44:01.948Z,76.40
2022-12-23T15:46:31.661Z,76.20
2022-12-23T15:48:58.556Z,76.30
2022-12-23T15:51:42.914Z,76.30
2022-12-23T15:54:26.594Z,76.40
2022-12-23T15:56:54.050Z,76.30
2022-12-23T15:59:25.464Z,76.40
2022-12-23T16:01:53.310Z,76.30
2022-12-23T16:04:25.238Z,76.30
2022-12-23T16:06:52.693Z,76.80
2022-12-23T16:09:19.443Z,76.20
2022-12-23T16:12:00.631Z,76.10
2022-12-23T16:14:30.885Z,76.40
2022-12-23T16:17:09.903Z,76.50
2022-12-23T16:19:48.795Z,76.40
2022-12-23T16:22:29.051Z,76.40
2022-12-23T16:25:15.302Z,76.30
2022-12-23T16:28:14.028Z,76.40
2022-12-23T16:30:42.687Z,76.40
2022-12-23T16:33:24.404Z,76.50
2022-12-23T16:35:53.249Z,76.20
2022-12-23T16:38:25.528Z,76.80
2022-12-23T16:40:56.576Z,76.30
2022-12-23T16:43:24.791Z,76.30
2022-12-23T16:45:55.569Z,76.40
2022-12-23T16:48:38.347Z,76.40
2022-12-23T16:51:12.614Z,77.00
2022-12-23T16:53:39.494Z,76.40
2022-12-23T16:56:17.362Z,76.30
2022-12-23T16:58:44.810Z,76.50
2022-12-23T17:01:27.086Z,76.30
2022-12-23T17:03:55.846Z,76.30
2022-12-23T17:06:23.499Z,76.20
2022-12-23T17:08:53.831Z,76.50
2022-12-23T17:11:36.188Z,76.50
2022-12-23T17:14:07.873Z,76.30
2022-12-23T17:16:37.296Z,76.30
2022-12-23T17:19:05.482Z,76.20
2022-12-23T17:21:36.638Z,76.50
2022-12-23T17:24:09.483Z,76.60
2022-12-23T17:26:36.201Z,76.40
2022-12-23T17:29:04.983Z,76.70
2022-12-23T17:31:33.944Z,77.20
2022-12-23T17:34:01.854Z,77.40
2022-12-23T17:36:29.374Z,78.30
2022-12-23T17:38:56.202Z,78.00
2022-12-23T17:41:31.389Z,78.00
2022-12-23T17:43:59.198Z,78.30
2022-12-23T17:46:27.001Z,78.10
2022-12-23T17:48:53.807Z,78.50
2022-12-23T17:51:22.556Z,79.00
2022-12-23T17:53:56.837Z,79.00
2022-12-23T17:56:24.955Z,79.50
2022-12-23T17:58:52.082Z,79.70
2022-12-23T18:01:24.235Z,79.80
2022-12-23T18:03:51.117Z,80.20
2022-12-23T18:06:19.962Z,80.20
2022-12-23T18:08:47.139Z,80.50
2022-12-23T18:11:32.619Z,80.80
2022-12-23T18:14:00.086Z,80.80
2022-12-23T18:16:27.116Z,81.00
2022-12-23T18:18:53.920Z,80.60
2022-12-23T18:21:24.380Z,81.00
2022-12-23T18:23:53.231Z,81.10
2022-12-23T18:26:20.063Z,81.10
2022-12-23T18:28:47.075Z,81.60
2022-12-23T18:31:17.298Z,81.90
2022-12-23T18:33:44.283Z,82.20
2022-12-23T18:36:29.217Z,82.20
2022-12-23T18:38:57.270Z,82.60
2022-12-23T18:41:25.801Z,82.80
2022-12-23T18:43:53.633Z,82.70
2022-12-23T18:46:21.162Z,82.70
2022-12-23T18:48:48.480Z,82.70
2022-12-23T18:51:17.499Z,82.90
2022-12-23T18:53:45.056Z,83.00
2022-12-23T18:56:16.327Z,83.10
2022-12-23T18:58:43.229Z,82.90
2022-12-23T19:01:14.803Z,82.90
2022-12-23T19:03:42.492Z,82.70
2022-12-23T19:06:13.323Z,83.00
2022-12-23T19:08:41.399Z,82.80
2022-12-23T19:11:17.918Z,83.30
2022-12-23T19:13:45.436Z,83.60
2022-12-23T19:16:17.974Z,84.00
2022-12-23T19:18:45.665Z,84.10
2022-12-23T19:21:12.820Z,84.30
2022-12-23T19:23:41.251Z,84.30
2022-12-23T19:26:13.726Z,84.50
2022-12-23T19:28:41.756Z,84.20
2022-12-23T19:31:13.739Z,84.30
2022-12-23T19:33:42.491Z,85.20
2022-12-23T19:36:19.076Z,84.30
2022-12-23T19:38:46.217Z,84.40
2022-12-23T19:41:13.107Z,84.50
2022-12-23T19:43:42.760Z,84.70
2022-12-23T19:46:11.155Z,84.50
2022-12-23T19:48:38.095Z,84.40
2022-12-23T19:51:14.061Z,84.50
2022-12-23T19:53:42.068Z,84.30
2022-12-23T19:56:13.883Z,84.50
2022-12-23T19:58:43.549Z,84.50
2022-12-23T20:01:12.489Z,84.50
2022-12-23T20:03:40.246Z,84.30
2022-12-23T20:06:08.632Z,84.00
2022-12-23T20:08:35.512Z,84.10
2022-12-23T20:11:11.019Z,84.80
2022-12-23T20:13:38.569Z,83.80
2022-12-23T20:16:06.790Z,84.00
2022-12-23T20:18:34.258Z,83.80
2022-12-23T20:21:01.457Z,83.60
2022-12-23T20:23:29.122Z,83.80
2022-12-23T20:25:56.216Z,83.70
2022-12-23T20:28:23.261Z,83.50
2022-12-23T20:31:08.979Z,83.60
2022-12-23T20:33:37.148Z,83.50
2022-12-23T20:36:06.413Z,83.30
2022-12-23T20:38:39.016Z,83.30
2022-12-23T20:41:07.531Z,83.10
2022-12-23T20:43:34.806Z,83.10
2022-12-23T20:46:06.061Z,83.60
2022-12-23T20:48:34.567Z,83.30
2022-12-23T20:51:10.940Z,83.30
2022-12-23T20:53:38.059Z,83.30
2022-12-23T20:56:07.220Z,83.20
2022-12-23T20:58:54.493Z,83.10
2022-12-23T21:01:26.159Z,83.00
2022-12-23T21:03:53.284Z,82.60
2022-12-23T21:06:20.765Z,82.50
2022-12-23T21:08:47.732Z,82.90
2022-12-23T21:11:14.958Z,83.10
2022-12-23T21:13:43.793Z,82.70
2022-12-23T21:16:12.973Z,82.50
2022-12-23T21:18:41.990Z,82.20
2022-12-23T21:21:09.137Z,82.10
2022-12-23T21:23:41.470Z,82.40
2022-12-23T21:26:09.581Z,82.20
2022-12-23T21:28:37.183Z,81.90
2022-12-23T21:31:04.625Z,82.00
2022-12-23T21:33:31.652Z,81.70
2022-12-23T21:35:58.546Z,81.40
2022-12-23T21:38:25.281Z,81.30
2022-12-23T21:40:58.370Z,81.40
2022-12-23T21:43:25.068Z,81.40
2022-12-23T21:45:59.786Z,81.50
2022-12-23T21:48:27.605Z,81.30
2022-12-23T21:50:54.517Z,81.20
2022-12-23T21:53:21.553Z,80.90
2022-12-23T21:55:48.488Z,81.10
2022-12-23T21:58:15.280Z,80.80
2022-12-23T22:00:47.944Z,80.60
2022-12-23T22:03:14.752Z,80.90
2022-12-23T22:05:41.799Z,80.80
2022-12-23T22:08:08.695Z,80.50
2022-12-23T22:10:38.457Z,80.70
2022-12-23T22:13:05.800Z,81.10
2022-12-23T22:15:32.654Z,81.20
2022-12-23T22:17:59.426Z,81.60
2022-12-23T22:20:26.399Z,81.60
2022-12-23T22:22:54.418Z,81.80
2022-12-23T22:25:21.817Z,82.10
2022-12-23T22:27:48.568Z,82.50
2022-12-23T22:30:15.532Z,82.50
2022-12-23T22:32:42.789Z,82.70
2022-12-23T22:35:10.223Z,82.50
2022-12-23T22:37:37.514Z,82.30
2022-12-23T22:40:04.631Z,82.40
2022-12-23T22:42:31.455Z,82.40
2022-12-23T22:44:58.306Z,82.30
2022-12-23T22:47:25.397Z,82.10
2022-12-23T22:49:52.252Z,82.10
2022-12-23T22:52:26.747Z,82.30
2022-12-23T22:54:53.555Z,81.90
2022-12-23T22:57:20.288Z,81.70
2022-12-23T22:59:47.141Z,82.10
2022-12-23T23:02:13.946Z,81.60
2022-12-23T23:04:40.771Z,81.30
2022-12-23T23:07:08.232Z,81.10
2022-12-23T23:09:35.035Z,81.10
2022-12-23T23:12:01.812Z,80.60
2022-12-23T23:14:48.556Z,80.40
2022-12-23T23:17:15.414Z,80.20
2022-12-23T23:19:42.210Z,79.70
2022-12-23T23:22:08.898Z,79.80
2022-12-23T23:24:35.586Z,79.30
2022-12-23T23:27:02.546Z,79.50
2022-12-23T23:29:29.373Z,79.20
2022-12-23T23:31:56.198Z,79.10
2022-12-23T23:34:23.006Z,79.10
2022-12-23T23:36:49.899Z,78.60
2022-12-23T23:39:16.855Z,78.70
2022-12-23T23:41:43.693Z,78.60
2022-12-23T23:44:11.303Z,78.70
2022-12-23T23:46:38.893Z,78.70
2022-12-23T23:49:06.921Z,78.90
2022-12-23T23:51:33.933Z,78.70
2022-12-23T23:54:00.719Z,78.70
2022-12-23T23:56:32.337Z,79.10
2022-12-23T23:59:02.853Z,79.00
